sensor_id;sensor_type;location;lat;lon;timestamp;P1;durP1;ratioP1;P2;durP2;ratioP2
66935;SDS011;53847;51.984;5.896;2022-07-29T00:02:13;1.88;;;1.05;;
66935;SDS011;53847;51.984;5.896;2022-07-29T00:04:39;2.55;;;1.20;;
66935;SDS011;53847;51.984;5.896;2022-07-29T00:07:05;3.05;;;1.40;;
66935;SDS011;53847;51.984;5.896;2022-07-29T00:09:31;2.47;;;1.50;;
66935;SDS011;53847;51.984;5.896;2022-07-29T00:11:59;1.40;;;1.30;;
66935;SDS011;53847;51.984;5.896;2022-07-29T00:14:26;2.58;;;1.23;;
66935;SDS011;53847;51.984;5.896;2022-07-29T00:16:52;1.70;;;1.00;;
66935;SDS011;53847;51.984;5.896;2022-07-29T00:19:19;2.35;;;1.15;;
66935;SDS011;53847;51.984;5.896;2022-07-29T00:21:45;3.22;;;1.42;;
66935;SDS011;53847;51.984;5.896;2022-07-29T00:24:11;2.88;;;1.35;;
66935;SDS011;53847;51.984;5.896;2022-07-29T00:26:37;2.92;;;1.30;;
66935;SDS011;53847;51.984;5.896;2022-07-29T00:29:03;1.98;;;1.10;;
66935;SDS011;53847;51.984;5.896;2022-07-29T00:31:30;1.52;;;1.30;;
66935;SDS011;53847;51.984;5.896;2022-07-29T00:33:56;1.65;;;1.13;;
66935;SDS011;53847;51.984;5.896;2022-07-29T00:36:22;1.88;;;1.20;;
66935;SDS011;53847;51.984;5.896;2022-07-29T00:38:49;1.77;;;1.08;;
66935;SDS011;53847;51.984;5.896;2022-07-29T00:41:16;1.50;;;1.13;;
66935;SDS011;53847;51.984;5.896;2022-07-29T00:43:42;2.13;;;1.02;;
66935;SDS011;53847;51.984;5.896;2022-07-29T00:46:09;2.80;;;1.30;;
66935;SDS011;53847;51.984;5.896;2022-07-29T00:48:35;2.22;;;1.38;;
66935;SDS011;53847;51.984;5.896;2022-07-29T00:51:02;2.60;;;1.25;;
66935;SDS011;53847;51.984;5.896;2022-07-29T00:53:29;1.40;;;1.20;;
66935;SDS011;53847;51.984;5.896;2022-07-29T00:55:56;2.00;;;1.40;;
66935;SDS011;53847;51.984;5.896;2022-07-29T00:58:23;2.15;;;1.30;;
66935;SDS011;53847;51.984;5.896;2022-07-29T01:00:51;3.92;;;1.67;;
66935;SDS011;53847;51.984;5.896;2022-07-29T01:03:18;2.70;;;1.40;;
66935;SDS011;53847;51.984;5.896;2022-07-29T01:05:44;2.22;;;1.30;;
66935;SDS011;53847;51.984;5.896;2022-07-29T01:08:12;2.67;;;1.23;;
66935;SDS011;53847;51.984;5.896;2022-07-29T01:10:39;1.90;;;1.40;;
66935;SDS011;53847;51.984;5.896;2022-07-29T01:13:07;3.30;;;1.38;;
66935;SDS011;53847;51.984;5.896;2022-07-29T01:15:46;2.13;;;1.23;;
66935;SDS011;53847;51.984;5.896;2022-07-29T01:18:34;2.03;;;1.38;;
66935;SDS011;53847;51.984;5.896;2022-07-29T01:21:31;3.72;;;1.63;;
66935;SDS011;53847;51.984;5.896;2022-07-29T01:26:48;3.35;;;1.98;;
66935;SDS011;53847;51.984;5.896;2022-07-29T01:29:35;1.88;;;1.48;;
66935;SDS011;53847;51.984;5.896;2022-07-29T01:32:12;4.72;;;1.92;;
66935;SDS011;53847;51.984;5.896;2022-07-29T01:34:49;3.42;;;1.92;;
66935;SDS011;53847;51.984;5.896;2022-07-29T01:40:03;1.77;;;1.40;;
66935;SDS011;53847;51.984;5.896;2022-07-29T01:42:38;3.40;;;1.60;;
66935;SDS011;53847;51.984;5.896;2022-07-29T01:48:22;1.85;;;1.40;;
66935;SDS011;53847;51.984;5.896;2022-07-29T01:50:56;2.47;;;1.40;;
66935;SDS011;53847;51.984;5.896;2022-07-29T01:54:10;2.00;;;1.27;;
66935;SDS011;53847;51.984;5.896;2022-07-29T01:56:20;1.23;;;1.13;;
66935;SDS011;53847;51.984;5.896;2022-07-29T01:58:49;2.67;;;1.40;;
66935;SDS011;53847;51.984;5.896;2022-07-29T02:01:18;1.70;;;1.17;;
66935;SDS011;53847;51.984;5.896;2022-07-29T02:03:47;1.20;;;1.10;;
66935;SDS011;53847;51.984;5.896;2022-07-29T02:06:15;1.52;;;1.27;;
66935;SDS011;53847;51.984;5.896;2022-07-29T02:08:44;1.42;;;1.10;;
66935;SDS011;53847;51.984;5.896;2022-07-29T02:11:12;0.85;;;0.85;;
66935;SDS011;53847;51.984;5.896;2022-07-29T02:13:38;1.23;;;1.13;;
66935;SDS011;53847;51.984;5.896;2022-07-29T02:16:06;1.38;;;1.05;;
66935;SDS011;53847;51.984;5.896;2022-07-29T02:18:35;2.47;;;1.17;;
66935;SDS011;53847;51.984;5.896;2022-07-29T02:21:04;1.65;;;1.20;;
66935;SDS011;53847;51.984;5.896;2022-07-29T02:23:31;1.67;;;1.30;;
66935;SDS011;53847;51.984;5.896;2022-07-29T02:26:00;1.17;;;1.05;;
66935;SDS011;53847;51.984;5.896;2022-07-29T02:28:28;1.50;;;1.40;;
66935;SDS011;53847;51.984;5.896;2022-07-29T02:30:57;1.52;;;1.30;;
66935;SDS011;53847;51.984;5.896;2022-07-29T02:33:26;1.45;;;1.02;;
66935;SDS011;53847;51.984;5.896;2022-07-29T02:35:55;1.13;;;1.02;;
66935;SDS011;53847;51.984;5.896;2022-07-29T02:38:23;2.92;;;1.20;;
66935;SDS011;53847;51.984;5.896;2022-07-29T02:40:52;2.10;;;1.20;;
66935;SDS011;53847;51.984;5.896;2022-07-29T02:43:20;1.23;;;1.10;;
66935;SDS011;53847;51.984;5.896;2022-07-29T02:45:48;2.30;;;1.30;;
66935;SDS011;53847;51.984;5.896;2022-07-29T02:48:18;1.92;;;1.48;;
66935;SDS011;53847;51.984;5.896;2022-07-29T02:50:55;2.75;;;1.30;;
66935;SDS011;53847;51.984;5.896;2022-07-29T02:53:31;2.78;;;1.30;;
66935;SDS011;53847;51.984;5.896;2022-07-29T02:56:01;2.13;;;1.25;;
66935;SDS011;53847;51.984;5.896;2022-07-29T02:58:34;2.33;;;1.23;;
66935;SDS011;53847;51.984;5.896;2022-07-29T03:01:11;2.15;;;1.50;;
66935;SDS011;53847;51.984;5.896;2022-07-29T03:03:42;3.20;;;1.27;;
66935;SDS011;53847;51.984;5.896;2022-07-29T03:06:10;1.40;;;1.23;;
66935;SDS011;53847;51.984;5.896;2022-07-29T03:08:38;1.30;;;1.20;;
66935;SDS011;53847;51.984;5.896;2022-07-29T03:11:05;2.20;;;1.38;;
66935;SDS011;53847;51.984;5.896;2022-07-29T03:13:34;3.35;;;1.60;;
66935;SDS011;53847;51.984;5.896;2022-07-29T03:16:01;2.85;;;1.58;;
66935;SDS011;53847;51.984;5.896;2022-07-29T03:18:28;3.22;;;1.58;;
66935;SDS011;53847;51.984;5.896;2022-07-29T03:20:56;2.58;;;1.65;;
66935;SDS011;53847;51.984;5.896;2022-07-29T03:23:23;3.42;;;1.90;;
66935;SDS011;53847;51.984;5.896;2022-07-29T03:25:49;3.85;;;1.90;;
66935;SDS011;53847;51.984;5.896;2022-07-29T03:28:16;3.47;;;2.15;;
66935;SDS011;53847;51.984;5.896;2022-07-29T03:30:42;2.33;;;1.80;;
66935;SDS011;53847;51.984;5.896;2022-07-29T03:33:08;2.05;;;1.85;;
66935;SDS011;53847;51.984;5.896;2022-07-29T03:35:35;2.95;;;1.85;;
66935;SDS011;53847;51.984;5.896;2022-07-29T03:38:01;3.08;;;1.80;;
66935;SDS011;53847;51.984;5.896;2022-07-29T03:40:27;2.03;;;1.70;;
66935;SDS011;53847;51.984;5.896;2022-07-29T03:42:59;3.80;;;2.30;;
66935;SDS011;53847;51.984;5.896;2022-07-29T03:45:27;2.42;;;1.67;;
66935;SDS011;53847;51.984;5.896;2022-07-29T03:47:57;3.03;;;2.10;;
66935;SDS011;53847;51.984;5.896;2022-07-29T03:50:27;2.28;;;1.90;;
66935;SDS011;53847;51.984;5.896;2022-07-29T03:52:56;2.72;;;2.13;;
66935;SDS011;53847;51.984;5.896;2022-07-29T03:55:22;2.83;;;2.17;;
66935;SDS011;53847;51.984;5.896;2022-07-29T03:57:49;4.00;;;1.90;;
66935;SDS011;53847;51.984;5.896;2022-07-29T04:00:16;3.28;;;2.17;;
66935;SDS011;53847;51.984;5.896;2022-07-29T04:02:43;2.45;;;1.98;;
66935;SDS011;53847;51.984;5.896;2022-07-29T04:05:12;3.63;;;2.25;;
66935;SDS011;53847;51.984;5.896;2022-07-29T04:07:39;2.38;;;2.15;;
66935;SDS011;53847;51.984;5.896;2022-07-29T04:10:09;4.00;;;2.00;;
66935;SDS011;53847;51.984;5.896;2022-07-29T04:12:35;2.20;;;2.00;;
66935;SDS011;53847;51.984;5.896;2022-07-29T04:15:04;2.35;;;2.15;;
66935;SDS011;53847;51.984;5.896;2022-07-29T04:17:31;2.65;;;2.10;;
66935;SDS011;53847;51.984;5.896;2022-07-29T04:19:57;3.00;;;2.10;;
66935;SDS011;53847;51.984;5.896;2022-07-29T04:22:23;2.63;;;2.05;;
66935;SDS011;53847;51.984;5.896;2022-07-29T04:24:49;2.20;;;2.00;;
66935;SDS011;53847;51.984;5.896;2022-07-29T04:27:15;6.22;;;2.20;;
66935;SDS011;53847;51.984;5.896;2022-07-29T04:29:41;2.78;;;2.05;;
66935;SDS011;53847;51.984;5.896;2022-07-29T04:32:07;3.08;;;2.05;;
66935;SDS011;53847;51.984;5.896;2022-07-29T04:34:33;3.63;;;2.05;;
66935;SDS011;53847;51.984;5.896;2022-07-29T04:37:00;3.20;;;1.80;;
66935;SDS011;53847;51.984;5.896;2022-07-29T04:39:26;3.17;;;2.00;;
66935;SDS011;53847;51.984;5.896;2022-07-29T04:41:52;2.85;;;2.10;;
66935;SDS011;53847;51.984;5.896;2022-07-29T04:44:18;3.72;;;2.00;;
66935;SDS011;53847;51.984;5.896;2022-07-29T04:46:44;2.92;;;2.08;;
66935;SDS011;53847;51.984;5.896;2022-07-29T04:49:10;2.30;;;2.03;;
66935;SDS011;53847;51.984;5.896;2022-07-29T04:51:36;2.90;;;2.10;;
66935;SDS011;53847;51.984;5.896;2022-07-29T04:54:02;3.85;;;2.13;;
66935;SDS011;53847;51.984;5.896;2022-07-29T04:56:29;2.00;;;1.80;;
66935;SDS011;53847;51.984;5.896;2022-07-29T04:58:55;2.72;;;1.80;;
66935;SDS011;53847;51.984;5.896;2022-07-29T05:01:21;2.65;;;2.10;;
66935;SDS011;53847;51.984;5.896;2022-07-29T05:03:47;2.60;;;1.80;;
66935;SDS011;53847;51.984;5.896;2022-07-29T05:06:13;2.45;;;1.92;;
66935;SDS011;53847;51.984;5.896;2022-07-29T05:08:40;2.15;;;1.80;;
66935;SDS011;53847;51.984;5.896;2022-07-29T05:11:06;3.03;;;2.15;;
66935;SDS011;53847;51.984;5.896;2022-07-29T05:13:32;1.90;;;1.70;;
66935;SDS011;53847;51.984;5.896;2022-07-29T05:15:58;2.53;;;2.10;;
66935;SDS011;53847;51.984;5.896;2022-07-29T05:18:24;2.25;;;1.80;;
66935;SDS011;53847;51.984;5.896;2022-07-29T05:20:51;5.65;;;2.15;;
66935;SDS011;53847;51.984;5.896;2022-07-29T05:23:17;3.10;;;2.20;;
66935;SDS011;53847;51.984;5.896;2022-07-29T05:25:43;3.47;;;2.10;;
66935;SDS011;53847;51.984;5.896;2022-07-29T05:28:09;3.58;;;2.40;;
66935;SDS011;53847;51.984;5.896;2022-07-29T05:30:36;3.22;;;2.38;;
66935;SDS011;53847;51.984;5.896;2022-07-29T05:33:02;4.40;;;2.35;;
66935;SDS011;53847;51.984;5.896;2022-07-29T05:35:28;3.78;;;2.08;;
66935;SDS011;53847;51.984;5.896;2022-07-29T05:37:54;3.28;;;2.20;;
66935;SDS011;53847;51.984;5.896;2022-07-29T05:40:20;3.20;;;2.22;;
66935;SDS011;53847;51.984;5.896;2022-07-29T05:42:46;2.42;;;2.22;;
66935;SDS011;53847;51.984;5.896;2022-07-29T05:45:12;3.13;;;2.70;;
66935;SDS011;53847;51.984;5.896;2022-07-29T05:47:38;2.90;;;2.13;;
66935;SDS011;53847;51.984;5.896;2022-07-29T05:50:04;2.80;;;1.95;;
66935;SDS011;53847;51.984;5.896;2022-07-29T05:52:31;2.40;;;1.88;;
66935;SDS011;53847;51.984;5.896;2022-07-29T05:54:57;3.25;;;2.25;;
66935;SDS011;53847;51.984;5.896;2022-07-29T05:57:23;5.20;;;2.95;;
66935;SDS011;53847;51.984;5.896;2022-07-29T05:59:50;2.92;;;2.38;;
66935;SDS011;53847;51.984;5.896;2022-07-29T06:02:16;2.95;;;2.65;;
66935;SDS011;53847;51.984;5.896;2022-07-29T06:04:42;2.95;;;2.33;;
66935;SDS011;53847;51.984;5.896;2022-07-29T06:07:09;4.20;;;2.50;;
66935;SDS011;53847;51.984;5.896;2022-07-29T06:09:35;3.55;;;2.30;;
66935;SDS011;53847;51.984;5.896;2022-07-29T06:12:01;3.83;;;2.10;;
66935;SDS011;53847;51.984;5.896;2022-07-29T06:14:27;2.85;;;2.55;;
66935;SDS011;53847;51.984;5.896;2022-07-29T06:16:54;3.30;;;2.08;;
66935;SDS011;53847;51.984;5.896;2022-07-29T06:19:20;3.00;;;2.35;;
66935;SDS011;53847;51.984;5.896;2022-07-29T06:21:46;3.10;;;1.90;;
66935;SDS011;53847;51.984;5.896;2022-07-29T06:24:13;2.20;;;2.00;;
66935;SDS011;53847;51.984;5.896;2022-07-29T06:26:40;3.50;;;2.33;;
66935;SDS011;53847;51.984;5.896;2022-07-29T06:29:07;2.40;;;2.20;;
66935;SDS011;53847;51.984;5.896;2022-07-29T06:31:37;2.95;;;2.15;;
66935;SDS011;53847;51.984;5.896;2022-07-29T06:34:03;2.17;;;1.95;;
66935;SDS011;53847;51.984;5.896;2022-07-29T06:36:30;3.65;;;2.10;;
66935;SDS011;53847;51.984;5.896;2022-07-29T06:38:59;4.15;;;2.22;;
66935;SDS011;53847;51.984;5.896;2022-07-29T06:41:25;3.90;;;1.70;;
66935;SDS011;53847;51.984;5.896;2022-07-29T06:43:51;1.88;;;1.75;;
66935;SDS011;53847;51.984;5.896;2022-07-29T06:46:18;2.03;;;1.50;;
66935;SDS011;53847;51.984;5.896;2022-07-29T06:48:45;2.13;;;1.63;;
66935;SDS011;53847;51.984;5.896;2022-07-29T06:51:12;1.55;;;1.45;;
66935;SDS011;53847;51.984;5.896;2022-07-29T06:53:38;1.40;;;1.30;;
66935;SDS011;53847;51.984;5.896;2022-07-29T06:56:05;1.30;;;1.20;;
66935;SDS011;53847;51.984;5.896;2022-07-29T06:58:32;2.30;;;1.77;;
66935;SDS011;53847;51.984;5.896;2022-07-29T07:01:00;2.00;;;1.52;;
66935;SDS011;53847;51.984;5.896;2022-07-29T07:03:28;1.85;;;1.48;;
66935;SDS011;53847;51.984;5.896;2022-07-29T07:05:54;2.60;;;1.40;;
66935;SDS011;53847;51.984;5.896;2022-07-29T07:08:21;1.55;;;1.45;;
66935;SDS011;53847;51.984;5.896;2022-07-29T07:10:48;3.35;;;1.63;;
66935;SDS011;53847;51.984;5.896;2022-07-29T07:13:14;1.88;;;1.50;;
66935;SDS011;53847;51.984;5.896;2022-07-29T07:15:40;1.42;;;1.33;;
66935;SDS011;53847;51.984;5.896;2022-07-29T07:18:06;2.13;;;1.63;;
66935;SDS011;53847;51.984;5.896;2022-07-29T07:20:33;2.15;;;1.52;;
66935;SDS011;53847;51.984;5.896;2022-07-29T07:23:03;2.20;;;1.60;;
66935;SDS011;53847;51.984;5.896;2022-07-29T07:25:29;3.85;;;1.90;;
66935;SDS011;53847;51.984;5.896;2022-07-29T07:27:56;4.43;;;1.83;;
66935;SDS011;53847;51.984;5.896;2022-07-29T07:30:22;1.88;;;1.50;;
66935;SDS011;53847;51.984;5.896;2022-07-29T07:32:49;3.10;;;1.70;;
66935;SDS011;53847;51.984;5.896;2022-07-29T07:35:15;2.00;;;1.50;;
66935;SDS011;53847;51.984;5.896;2022-07-29T07:37:49;3.22;;;2.03;;
66935;SDS011;53847;51.984;5.896;2022-07-29T07:40:17;2.53;;;1.75;;
66935;SDS011;53847;51.984;5.896;2022-07-29T07:42:43;1.95;;;1.67;;
66935;SDS011;53847;51.984;5.896;2022-07-29T07:45:09;3.30;;;1.80;;
66935;SDS011;53847;51.984;5.896;2022-07-29T07:47:36;2.55;;;2.00;;
66935;SDS011;53847;51.984;5.896;2022-07-29T07:50:03;2.90;;;1.65;;
66935;SDS011;53847;51.984;5.896;2022-07-29T07:52:31;1.92;;;1.58;;
66935;SDS011;53847;51.984;5.896;2022-07-29T07:54:58;2.45;;;1.92;;
66935;SDS011;53847;51.984;5.896;2022-07-29T07:57:24;3.45;;;1.75;;
66935;SDS011;53847;51.984;5.896;2022-07-29T07:59:50;1.92;;;1.35;;
66935;SDS011;53847;51.984;5.896;2022-07-29T08:02:16;1.30;;;1.20;;
66935;SDS011;53847;51.984;5.896;2022-07-29T08:04:42;1.40;;;1.30;;
66935;SDS011;53847;51.984;5.896;2022-07-29T08:07:08;1.20;;;1.10;;
66935;SDS011;53847;51.984;5.896;2022-07-29T08:09:35;1.30;;;1.13;;
66935;SDS011;53847;51.984;5.896;2022-07-29T08:12:01;1.05;;;0.93;;
66935;SDS011;53847;51.984;5.896;2022-07-29T08:14:29;2.03;;;1.20;;
66935;SDS011;53847;51.984;5.896;2022-07-29T08:16:56;2.80;;;1.90;;
66935;SDS011;53847;51.984;5.896;2022-07-29T08:19:22;2.88;;;1.92;;
66935;SDS011;53847;51.984;5.896;2022-07-29T08:21:48;2.00;;;1.45;;
66935;SDS011;53847;51.984;5.896;2022-07-29T08:24:14;1.65;;;1.50;;
66935;SDS011;53847;51.984;5.896;2022-07-29T08:26:41;4.22;;;1.65;;
66935;SDS011;53847;51.984;5.896;2022-07-29T08:29:08;2.13;;;1.70;;
66935;SDS011;53847;51.984;5.896;2022-07-29T08:31:34;1.58;;;1.35;;
66935;SDS011;53847;51.984;5.896;2022-07-29T08:34:01;2.75;;;1.30;;
66935;SDS011;53847;51.984;5.896;2022-07-29T08:36:28;3.95;;;1.80;;
66935;SDS011;53847;51.984;5.896;2022-07-29T08:38:54;2.33;;;1.55;;
66935;SDS011;53847;51.984;5.896;2022-07-29T08:41:21;2.55;;;1.40;;
66935;SDS011;53847;51.984;5.896;2022-07-29T08:43:47;1.10;;;1.00;;
66935;SDS011;53847;51.984;5.896;2022-07-29T08:46:14;1.20;;;1.10;;
66935;SDS011;53847;51.984;5.896;2022-07-29T08:48:41;1.55;;;1.40;;
66935;SDS011;53847;51.984;5.896;2022-07-29T08:51:08;3.17;;;1.65;;
66935;SDS011;53847;51.984;5.896;2022-07-29T08:53:40;2.28;;;1.50;;
66935;SDS011;53847;51.984;5.896;2022-07-29T08:56:12;1.90;;;1.52;;
66935;SDS011;53847;51.984;5.896;2022-07-29T08:58:39;3.35;;;1.63;;
66935;SDS011;53847;51.984;5.896;2022-07-29T09:01:05;2.00;;;1.80;;
66935;SDS011;53847;51.984;5.896;2022-07-29T09:03:33;2.53;;;1.73;;
66935;SDS011;53847;51.984;5.896;2022-07-29T09:06:02;2.25;;;1.58;;
66935;SDS011;53847;51.984;5.896;2022-07-29T09:08:30;1.70;;;1.40;;
66935;SDS011;53847;51.984;5.896;2022-07-29T09:10:57;1.55;;;1.25;;
66935;SDS011;53847;51.984;5.896;2022-07-29T09:13:24;1.17;;;1.08;;
66935;SDS011;53847;51.984;5.896;2022-07-29T09:15:50;1.88;;;1.35;;
66935;SDS011;53847;51.984;5.896;2022-07-29T09:21:06;1.60;;;1.48;;
66935;SDS011;53847;51.984;5.896;2022-07-29T09:23:33;3.15;;;2.08;;
66935;SDS011;53847;51.984;5.896;2022-07-29T09:26:00;2.83;;;1.98;;
66935;SDS011;53847;51.984;5.896;2022-07-29T09:28:31;2.83;;;1.92;;
66935;SDS011;53847;51.984;5.896;2022-07-29T09:30:57;1.65;;;1.40;;
66935;SDS011;53847;51.984;5.896;2022-07-29T09:33:24;3.08;;;1.50;;
66935;SDS011;53847;51.984;5.896;2022-07-29T09:36:05;2.13;;;1.70;;
66935;SDS011;53847;51.984;5.896;2022-07-29T09:38:32;3.28;;;1.67;;
66935;SDS011;53847;51.984;5.896;2022-07-29T09:41:01;2.80;;;2.20;;
66935;SDS011;53847;51.984;5.896;2022-07-29T09:43:28;4.43;;;1.98;;
66935;SDS011;53847;51.984;5.896;2022-07-29T09:45:55;1.70;;;1.50;;
66935;SDS011;53847;51.984;5.896;2022-07-29T09:48:22;1.73;;;1.45;;
66935;SDS011;53847;51.984;5.896;2022-07-29T09:50:50;2.58;;;1.60;;
66935;SDS011;53847;51.984;5.896;2022-07-29T09:56:14;1.73;;;1.20;;
66935;SDS011;53847;51.984;5.896;2022-07-29T09:58:40;2.40;;;1.80;;
66935;SDS011;53847;51.984;5.896;2022-07-29T10:01:06;1.75;;;1.30;;
66935;SDS011;53847;51.984;5.896;2022-07-29T10:03:33;2.15;;;1.83;;
66935;SDS011;53847;51.984;5.896;2022-07-29T10:06:16;4.18;;;1.90;;
66935;SDS011;53847;51.984;5.896;2022-07-29T10:08:42;3.72;;;1.83;;
66935;SDS011;53847;51.984;5.896;2022-07-29T10:11:09;2.47;;;1.90;;
66935;SDS011;53847;51.984;5.896;2022-07-29T10:13:40;2.78;;;2.00;;
66935;SDS011;53847;51.984;5.896;2022-07-29T10:16:07;3.60;;;1.92;;
66935;SDS011;53847;51.984;5.896;2022-07-29T10:18:34;3.22;;;1.88;;
66935;SDS011;53847;51.984;5.896;2022-07-29T10:21:01;2.72;;;1.92;;
66935;SDS011;53847;51.984;5.896;2022-07-29T10:23:28;3.58;;;2.42;;
66935;SDS011;53847;51.984;5.896;2022-07-29T10:25:55;2.50;;;2.30;;
66935;SDS011;53847;51.984;5.896;2022-07-29T10:28:22;2.40;;;2.00;;
66935;SDS011;53847;51.984;5.896;2022-07-29T10:30:48;2.55;;;2.05;;
66935;SDS011;53847;51.984;5.896;2022-07-29T10:36:02;3.38;;;2.03;;
66935;SDS011;53847;51.984;5.896;2022-07-29T10:38:48;1.88;;;1.77;;
66935;SDS011;53847;51.984;5.896;2022-07-29T10:46:25;3.67;;;1.88;;
66935;SDS011;53847;51.984;5.896;2022-07-29T10:49:11;3.25;;;1.75;;
66935;SDS011;53847;51.984;5.896;2022-07-29T11:00:26;1.50;;;1.40;;
66935;SDS011;53847;51.984;5.896;2022-07-29T11:02:53;1.67;;;1.38;;
66935;SDS011;53847;51.984;5.896;2022-07-29T11:05:20;3.22;;;1.30;;
66935;SDS011;53847;51.984;5.896;2022-07-29T11:10:40;3.47;;;1.50;;
66935;SDS011;53847;51.984;5.896;2022-07-29T11:13:06;2.42;;;2.00;;
66935;SDS011;53847;51.984;5.896;2022-07-29T11:15:52;2.58;;;1.85;;
66935;SDS011;53847;51.984;5.896;2022-07-29T11:18:19;2.88;;;1.52;;
66935;SDS011;53847;51.984;5.896;2022-07-29T11:20:46;2.28;;;1.65;;
66935;SDS011;53847;51.984;5.896;2022-07-29T11:23:31;2.28;;;1.75;;
66935;SDS011;53847;51.984;5.896;2022-07-29T11:29:22;2.33;;;1.50;;
66935;SDS011;53847;51.984;5.896;2022-07-29T11:31:42;1.90;;;1.20;;
66935;SDS011;53847;51.984;5.896;2022-07-29T11:34:19;3.10;;;1.67;;
66935;SDS011;53847;51.984;5.896;2022-07-29T11:45:05;4.10;;;2.00;;
66935;SDS011;53847;51.984;5.896;2022-07-29T11:47:34;2.65;;;1.48;;
66935;SDS011;53847;51.984;5.896;2022-07-29T11:53:01;3.05;;;1.80;;
66935;SDS011;53847;51.984;5.896;2022-07-29T11:55:34;1.63;;;1.40;;
66935;SDS011;53847;51.984;5.896;2022-07-29T11:58:03;2.45;;;2.00;;
66935;SDS011;53847;51.984;5.896;2022-07-29T12:00:37;4.05;;;1.80;;
66935;SDS011;53847;51.984;5.896;2022-07-29T12:03:06;3.05;;;1.80;;
66935;SDS011;53847;51.984;5.896;2022-07-29T12:10:36;4.55;;;2.28;;
66935;SDS011;53847;51.984;5.896;2022-07-29T12:13:02;3.13;;;1.90;;
66935;SDS011;53847;51.984;5.896;2022-07-29T12:15:29;1.77;;;1.40;;
66935;SDS011;53847;51.984;5.896;2022-07-29T12:17:55;3.63;;;1.77;;
66935;SDS011;53847;51.984;5.896;2022-07-29T12:20:22;2.20;;;1.73;;
66935;SDS011;53847;51.984;5.896;2022-07-29T12:22:50;3.20;;;1.70;;
66935;SDS011;53847;51.984;5.896;2022-07-29T12:25:16;2.50;;;1.80;;
66935;SDS011;53847;51.984;5.896;2022-07-29T12:27:42;1.75;;;1.55;;
66935;SDS011;53847;51.984;5.896;2022-07-29T12:30:09;1.35;;;1.25;;
66935;SDS011;53847;51.984;5.896;2022-07-29T12:32:38;2.15;;;1.55;;
66935;SDS011;53847;51.984;5.896;2022-07-29T12:35:05;2.55;;;1.63;;
66935;SDS011;53847;51.984;5.896;2022-07-29T12:37:35;1.92;;;1.65;;
66935;SDS011;53847;51.984;5.896;2022-07-29T12:40:03;1.60;;;1.50;;
66935;SDS011;53847;51.984;5.896;2022-07-29T12:42:31;1.95;;;1.52;;
66935;SDS011;53847;51.984;5.896;2022-07-29T12:44:57;1.67;;;1.52;;
66935;SDS011;53847;51.984;5.896;2022-07-29T12:47:24;2.15;;;1.55;;
66935;SDS011;53847;51.984;5.896;2022-07-29T12:52:35;2.38;;;1.55;;
66935;SDS011;53847;51.984;5.896;2022-07-29T12:55:02;1.83;;;1.52;;
66935;SDS011;53847;51.984;5.896;2022-07-29T12:57:29;3.92;;;1.67;;
66935;SDS011;53847;51.984;5.896;2022-07-29T13:00:14;2.40;;;1.65;;
66935;SDS011;53847;51.984;5.896;2022-07-29T13:02:41;1.90;;;1.45;;
66935;SDS011;53847;51.984;5.896;2022-07-29T13:05:08;1.50;;;1.20;;
66935;SDS011;53847;51.984;5.896;2022-07-29T13:07:35;2.05;;;1.50;;
66935;SDS011;53847;51.984;5.896;2022-07-29T13:10:15;1.88;;;1.40;;
66935;SDS011;53847;51.984;5.896;2022-07-29T13:13:07;1.58;;;1.40;;
66935;SDS011;53847;51.984;5.896;2022-07-29T13:15:33;1.60;;;1.50;;
66935;SDS011;53847;51.984;5.896;2022-07-29T13:17:59;1.63;;;1.50;;
66935;SDS011;53847;51.984;5.896;2022-07-29T13:20:26;2.20;;;1.40;;
66935;SDS011;53847;51.984;5.896;2022-07-29T13:22:54;2.25;;;1.63;;
66935;SDS011;53847;51.984;5.896;2022-07-29T13:25:28;2.15;;;1.95;;
66935;SDS011;53847;51.984;5.896;2022-07-29T13:27:55;2.67;;;1.67;;
66935;SDS011;53847;51.984;5.896;2022-07-29T13:30:22;1.85;;;1.58;;
66935;SDS011;53847;51.984;5.896;2022-07-29T13:32:48;2.33;;;1.60;;
66935;SDS011;53847;51.984;5.896;2022-07-29T13:35:14;1.23;;;1.13;;
66935;SDS011;53847;51.984;5.896;2022-07-29T13:37:41;1.30;;;1.20;;
66935;SDS011;53847;51.984;5.896;2022-07-29T13:40:07;1.88;;;1.60;;
66935;SDS011;53847;51.984;5.896;2022-07-29T13:42:34;2.05;;;1.52;;
66935;SDS011;53847;51.984;5.896;2022-07-29T13:45:00;1.60;;;1.50;;
66935;SDS011;53847;51.984;5.896;2022-07-29T13:47:27;2.10;;;1.55;;
66935;SDS011;53847;51.984;5.896;2022-07-29T13:49:54;2.63;;;1.40;;
66935;SDS011;53847;51.984;5.896;2022-07-29T13:52:20;1.63;;;1.52;;
66935;SDS011;53847;51.984;5.896;2022-07-29T13:54:47;1.50;;;1.40;;
66935;SDS011;53847;51.984;5.896;2022-07-29T13:57:13;1.90;;;1.40;;
66935;SDS011;53847;51.984;5.896;2022-07-29T13:59:40;1.80;;;1.70;;
66935;SDS011;53847;51.984;5.896;2022-07-29T14:02:06;3.03;;;1.77;;
66935;SDS011;53847;51.984;5.896;2022-07-29T14:04:34;2.08;;;1.60;;
66935;SDS011;53847;51.984;5.896;2022-07-29T14:07:01;2.80;;;1.60;;
66935;SDS011;53847;51.984;5.896;2022-07-29T14:09:27;2.30;;;1.77;;
66935;SDS011;53847;51.984;5.896;2022-07-29T14:11:53;3.40;;;1.80;;
66935;SDS011;53847;51.984;5.896;2022-07-29T14:14:19;1.77;;;1.45;;
66935;SDS011;53847;51.984;5.896;2022-07-29T14:16:46;2.08;;;1.70;;
66935;SDS011;53847;51.984;5.896;2022-07-29T14:19:12;1.95;;;1.45;;
66935;SDS011;53847;51.984;5.896;2022-07-29T14:21:38;2.53;;;1.70;;
66935;SDS011;53847;51.984;5.896;2022-07-29T14:24:04;1.95;;;1.50;;
66935;SDS011;53847;51.984;5.896;2022-07-29T14:26:31;1.63;;;1.52;;
66935;SDS011;53847;51.984;5.896;2022-07-29T14:28:57;1.63;;;1.50;;
66935;SDS011;53847;51.984;5.896;2022-07-29T14:31:23;1.33;;;1.23;;
66935;SDS011;53847;51.984;5.896;2022-07-29T14:33:50;1.73;;;1.50;;
66935;SDS011;53847;51.984;5.896;2022-07-29T14:36:16;2.55;;;1.70;;
66935;SDS011;53847;51.984;5.896;2022-07-29T14:38:42;2.00;;;1.80;;
66935;SDS011;53847;51.984;5.896;2022-07-29T14:41:08;2.33;;;1.73;;
66935;SDS011;53847;51.984;5.896;2022-07-29T14:43:34;2.20;;;1.52;;
66935;SDS011;53847;51.984;5.896;2022-07-29T14:46:00;1.40;;;1.30;;
66935;SDS011;53847;51.984;5.896;2022-07-29T14:48:27;1.63;;;1.48;;
66935;SDS011;53847;51.984;5.896;2022-07-29T14:50:53;1.50;;;1.40;;
66935;SDS011;53847;51.984;5.896;2022-07-29T14:53:19;1.63;;;1.50;;
66935;SDS011;53847;51.984;5.896;2022-07-29T14:55:45;1.65;;;1.52;;
66935;SDS011;53847;51.984;5.896;2022-07-29T14:58:12;1.55;;;1.30;;
66935;SDS011;53847;51.984;5.896;2022-07-29T15:00:38;1.40;;;1.27;;
66935;SDS011;53847;51.984;5.896;2022-07-29T15:03:04;1.90;;;1.20;;
66935;SDS011;53847;51.984;5.896;2022-07-29T15:05:30;1.60;;;1.17;;
66935;SDS011;53847;51.984;5.896;2022-07-29T15:08:00;1.42;;;1.33;;
66935;SDS011;53847;51.984;5.896;2022-07-29T15:10:26;1.60;;;1.40;;
66935;SDS011;53847;51.984;5.896;2022-07-29T15:12:53;2.35;;;1.60;;
66935;SDS011;53847;51.984;5.896;2022-07-29T15:15:19;2.97;;;1.92;;
66935;SDS011;53847;51.984;5.896;2022-07-29T15:17:46;2.72;;;1.60;;
66935;SDS011;53847;51.984;5.896;2022-07-29T15:20:12;1.70;;;1.23;;
66935;SDS011;53847;51.984;5.896;2022-07-29T15:22:41;1.30;;;1.20;;
66935;SDS011;53847;51.984;5.896;2022-07-29T15:25:08;1.48;;;1.30;;
66935;SDS011;53847;51.984;5.896;2022-07-29T15:27:34;1.95;;;1.45;;
66935;SDS011;53847;51.984;5.896;2022-07-29T15:30:00;3.20;;;1.63;;
66935;SDS011;53847;51.984;5.896;2022-07-29T15:32:26;1.70;;;1.33;;
66935;SDS011;53847;51.984;5.896;2022-07-29T15:34:52;1.63;;;1.52;;
66935;SDS011;53847;51.984;5.896;2022-07-29T15:37:18;2.30;;;1.50;;
66935;SDS011;53847;51.984;5.896;2022-07-29T15:39:44;1.50;;;1.40;;
66935;SDS011;53847;51.984;5.896;2022-07-29T15:42:10;1.15;;;1.05;;
66935;SDS011;53847;51.984;5.896;2022-07-29T15:44:37;1.65;;;1.27;;
66935;SDS011;53847;51.984;5.896;2022-07-29T15:47:03;1.20;;;1.10;;
66935;SDS011;53847;51.984;5.896;2022-07-29T15:49:29;1.75;;;1.20;;